This is the latest recevied weather packets stored in our database for station/object EA5LU-10. If no packets are shown the sender has not sent any weather packets the latest 1 day(s).
| Time | Temp. | Humidity | Pressure | Rain* | Wind** | Luminosity | Snow |
|---|---|---|---|---|---|---|---|
| 1778096534 | 21.11° C | 55% | 1002.3 hPa | - | - | - | - |
| 1778095633 | 21.11° C | 54% | 1002.3 hPa | - | - | - | - |
| 1778091133 | 23.89° C | 47% | 1001.6 hPa | - | - | - | - |
| 1778090232 | 25.56° C | 45% | 1001.5 hPa | - | - | - | - |
| 1778089327 | 25.56° C | 44% | 1001.4 hPa | - | - | - | - |
| 1778088430 | 23.89° C | 45% | 1001.3 hPa | - | - | - | - |
| 1778079422 | 28.89° C | 33% | 1000.7 hPa | - | - | - | - |
| 1778076721 | 27.78° C | 35% | 1000.7 hPa | - | - | - | - |
| 1778071309 | 27.78° C | 42% | 1001 hPa | - | - | - | - |
| 1778065003 | 25.56° C | 42% | 1001.9 hPa | - | - | - | - |
| 1778064102 | 26.11° C | 41% | 1002 hPa | - | - | - | - |
| 1778062305 | 25.56° C | 45% | 1002.2 hPa | - | - | - | - |
| 1778061400 | 23.33° C | 50% | 1002.4 hPa | - | - | - | - |
| 1778052392 | 21.11° C | 38% | 1002.4 hPa | - | - | - | - |
| 1778048792 | 18.89° C | 44% | 1002.3 hPa | - | - | - | - |
| 1778047892 | 16.67° C | 50% | 1001.8 hPa | - | - | - | - |
| 1778046987 | 16.67° C | 52% | 1001.6 hPa | - | - | - | - |
| 1778044284 | 16.11° C | 55% | 1001.1 hPa | - | - | - | - |
| 1778043384 | 15.56° C | 57% | 1001 hPa | - | - | - | - |
| 1778042483 | 16.11° C | 57% | 1000.9 hPa | - | - | - | - |
| 1778040681 | 16.67° C | 57% | 1000.9 hPa | - | - | - | - |
| 1778038879 | 17.22° C | 59% | 1001.2 hPa | - | - | - | - |
| 1778037078 | 17.78° C | 57% | 1001.5 hPa | - | - | - | - |
| 1778036180 | 18.33° C | 54% | 1001.4 hPa | - | - | - | - |
| 1778035280 | 18.33° C | 55% | 1001.4 hPa | - | - | - | - |
* Rain since midnight (hover to see other rain measurements)
** Current wind speed in m/s (hover to see current wind gust speed)